createdAt,value
2022-09-28T00:02:11.873Z,75.95
2022-09-28T00:04:39.989Z,75.44
2022-09-28T00:07:08.998Z,75.87
2022-09-28T00:09:39.738Z,75.73
2022-09-28T00:12:07.670Z,76.30
2022-09-28T00:14:35.647Z,75.96
2022-09-28T00:17:03.759Z,76.64
2022-09-28T00:19:31.796Z,76.40
2022-09-28T00:21:59.714Z,76.13
2022-09-28T00:24:28.321Z,77.02
2022-09-28T00:26:59.675Z,76.89
2022-09-28T00:29:32.237Z,77.04
2022-09-28T00:32:04.971Z,76.47
2022-09-28T00:34:36.683Z,76.88
2022-09-28T00:37:06.730Z,77.54
2022-09-28T00:39:36.580Z,77.04
2022-09-28T00:42:06.224Z,77.82
2022-09-28T00:44:49.153Z,77.83
2022-09-28T00:47:41.166Z,77.48
2022-09-28T00:50:31.658Z,77.52
2022-09-28T00:53:09.881Z,77.28
2022-09-28T00:55:51.369Z,78.05
2022-09-28T00:58:24.571Z,77.37
2022-09-28T01:00:56.742Z,77.38
2022-09-28T01:03:29.285Z,77.86
2022-09-28T01:06:00.444Z,78.23
2022-09-28T01:08:30.217Z,77.92
2022-09-28T01:11:01.496Z,78.04
2022-09-28T01:13:32.918Z,77.67
2022-09-28T01:16:30.672Z,77.90
2022-09-28T01:19:13.797Z,78.21
2022-09-28T01:22:09.994Z,77.78
2022-09-28T01:25:05.025Z,77.87
2022-09-28T01:27:43.991Z,77.98
2022-09-28T01:30:17.739Z,78.36
2022-09-28T01:32:45.630Z,78.25
2022-09-28T01:35:21.853Z,78.43
2022-09-28T01:38:03.628Z,78.85
2022-09-28T01:40:35.315Z,78.36
2022-09-28T01:43:17.403Z,78.55
2022-09-28T01:46:02.989Z,78.19
2022-09-28T01:48:36.364Z,77.91
2022-09-28T01:51:10.996Z,78.90
2022-09-28T01:53:47.049Z,78.52
2022-09-28T01:56:41.898Z,78.19
2022-09-28T01:59:15.380Z,78.87
2022-09-28T02:02:07.107Z,78.51
2022-09-28T02:04:44.192Z,78.40
2022-09-28T02:07:22.073Z,78.99
2022-09-28T02:09:56.947Z,78.88
2022-09-28T02:12:34.983Z,79.09
2022-09-28T02:15:20.994Z,79.12
2022-09-28T02:17:51.247Z,79.09
2022-09-28T02:20:22.233Z,79.40
2022-09-28T02:22:58.216Z,79.11
2022-09-28T02:25:36.202Z,79.08
2022-09-28T02:28:08.105Z,79.09
2022-09-28T02:30:40.123Z,78.74
2022-09-28T02:33:31.287Z,79.28
2022-09-28T02:36:01.606Z,79.37
2022-09-28T02:38:29.915Z,78.94
2022-09-28T02:41:15.478Z,79.02
2022-09-28T02:43:54.471Z,79.30
2022-09-28T02:46:58.912Z,78.95
2022-09-28T02:49:51.157Z,78.93
2022-09-28T02:52:49.979Z,79.09
2022-09-28T02:55:23.843Z,79.14
2022-09-28T02:58:04.508Z,79.27
2022-09-28T03:00:38.870Z,79.42
2022-09-28T03:03:19.976Z,79.49
2022-09-28T03:06:02.750Z,79.42
2022-09-28T03:09:05.910Z,78.94
2022-09-28T03:12:01.899Z,79.35
2022-09-28T03:14:30.841Z,79.32
2022-09-28T03:16:58.840Z,79.54
2022-09-28T03:19:32.331Z,79.56
2022-09-28T03:22:00.676Z,79.53
2022-09-28T03:24:28.695Z,79.76
2022-09-28T03:26:56.639Z,80.20
2022-09-28T03:29:25.574Z,80.06
2022-09-28T03:31:53.553Z,80.12
2022-09-28T03:34:21.589Z,80.06
2022-09-28T03:36:49.779Z,80.23
2022-09-28T03:39:17.713Z,80.07
2022-09-28T03:41:45.735Z,79.54
2022-09-28T03:44:13.960Z,80.43
2022-09-28T03:46:41.865Z,79.87
2022-09-28T03:49:10.770Z,79.52
2022-09-28T03:51:41.539Z,80.33
2022-09-28T03:54:09.538Z,79.95
2022-09-28T03:56:37.686Z,80.44
2022-09-28T03:59:06.988Z,80.08
2022-09-28T04:01:34.977Z,80.16
2022-09-28T04:04:03.073Z,79.61
2022-09-28T04:06:31.241Z,80.01
2022-09-28T04:09:00.245Z,80.10
2022-09-28T04:11:34.903Z,80.03
2022-09-28T04:14:13.027Z,80.62
2022-09-28T04:16:41.081Z,80.34
2022-09-28T04:19:11.015Z,80.32
2022-09-28T04:21:39.826Z,80.26
2022-09-28T04:24:07.964Z,79.98
2022-09-28T04:26:35.913Z,80.29
2022-09-28T04:29:20.003Z,80.51
2022-09-28T04:31:54.393Z,80.65
2022-09-28T04:34:34.492Z,81.00
2022-09-28T04:37:03.834Z,80.68
2022-09-28T04:39:31.751Z,80.99
2022-09-28T04:42:01.361Z,81.15
2022-09-28T04:44:29.331Z,81.11
2022-09-28T04:46:59.661Z,80.62
2022-09-28T04:49:31.745Z,80.83
2022-09-28T04:51:59.734Z,81.34
2022-09-28T04:54:27.750Z,81.17
2022-09-28T04:59:41.101Z,81.33
2022-09-28T05:02:11.033Z,81.22
2022-09-28T05:04:39.058Z,81.08
2022-09-28T05:07:07.090Z,81.33
2022-09-28T05:09:38.519Z,81.33
2022-09-28T05:12:07.028Z,81.73
2022-09-28T05:14:35.051Z,82.38
2022-09-28T05:17:04.875Z,82.53
2022-09-28T05:19:35.491Z,82.40
2022-09-28T05:22:05.635Z,82.34
2022-09-28T05:24:34.941Z,82.49
2022-09-28T05:27:03.032Z,82.11
2022-09-28T05:29:32.438Z,82.42
2022-09-28T05:32:02.330Z,82.66
2022-09-28T05:34:30.586Z,83.12
2022-09-28T05:36:58.544Z,82.75
2022-09-28T05:39:28.018Z,83.32
2022-09-28T05:41:58.558Z,83.17
2022-09-28T05:44:26.644Z,82.89
2022-09-28T05:46:55.636Z,83.29
2022-09-28T05:49:23.606Z,83.18
2022-09-28T05:51:51.543Z,83.36
2022-09-28T05:54:20.637Z,83.38
2022-09-28T05:56:48.970Z,83.75
2022-09-28T05:59:17.272Z,83.67
2022-09-28T06:01:45.487Z,84.03
2022-09-28T06:04:15.272Z,84.31
2022-09-28T06:06:43.725Z,84.01
2022-09-28T06:09:12.791Z,84.13
2022-09-28T06:11:40.934Z,84.34
2022-09-28T06:14:09.319Z,84.61
2022-09-28T06:16:43.074Z,84.81
2022-09-28T06:19:13.362Z,84.79
2022-09-28T06:21:41.274Z,85.46
2022-09-28T06:24:10.978Z,85.20
2022-09-28T06:26:39.095Z,84.76
2022-09-28T06:29:07.036Z,85.51
2022-09-28T06:31:35.626Z,85.49
2022-09-28T06:34:03.532Z,84.64
2022-09-28T06:36:31.972Z,85.02
2022-09-28T06:39:00.841Z,85.58
2022-09-28T06:41:28.823Z,85.02
2022-09-28T06:43:57.043Z,85.00
2022-09-28T06:46:26.324Z,85.15
2022-09-28T06:48:56.923Z,85.42
2022-09-28T06:51:25.910Z,85.56
2022-09-28T06:53:55.498Z,85.41
2022-09-28T06:56:23.416Z,85.06
2022-09-28T06:58:51.456Z,85.96
2022-09-28T07:01:22.845Z,85.47
2022-09-28T07:03:55.415Z,86.05
2022-09-28T07:06:24.839Z,85.91
2022-09-28T07:09:02.111Z,86.28
2022-09-28T07:11:42.030Z,86.19
2022-09-28T07:14:14.479Z,85.95
2022-09-28T07:17:09.124Z,86.12
2022-09-28T07:19:36.939Z,86.02
2022-09-28T07:22:05.687Z,86.06
2022-09-28T07:24:33.892Z,86.12
2022-09-28T07:27:05.943Z,85.93
2022-09-28T07:29:33.883Z,86.07
2022-09-28T07:32:02.002Z,86.29
2022-09-28T07:34:30.977Z,86.70
2022-09-28T07:37:00.053Z,86.41
2022-09-28T07:39:27.902Z,86.23
2022-09-28T07:41:59.691Z,86.70
2022-09-28T07:44:30.432Z,86.52
2022-09-28T07:46:58.526Z,87.04
2022-09-28T07:49:26.513Z,86.79
2022-09-28T07:51:54.396Z,86.59
2022-09-28T07:54:22.567Z,87.16
2022-09-28T07:56:50.506Z,86.97
2022-09-28T07:59:19.293Z,86.97
2022-09-28T08:01:50.342Z,87.17
2022-09-28T08:04:18.773Z,87.63
2022-09-28T08:06:47.043Z,87.31
2022-09-28T08:09:15.276Z,87.06
2022-09-28T08:11:44.436Z,87.57
2022-09-28T08:14:12.457Z,87.42
2022-09-28T08:16:43.739Z,87.84
2022-09-28T08:19:11.936Z,87.35
2022-09-28T08:21:45.623Z,87.00
2022-09-28T08:24:15.527Z,87.66
2022-09-28T08:26:44.097Z,87.22
2022-09-28T08:29:12.223Z,87.76
2022-09-28T08:31:40.342Z,87.44
2022-09-28T08:34:08.467Z,88.03
2022-09-28T08:36:36.457Z,87.73
2022-09-28T08:39:05.614Z,87.47
2022-09-28T08:41:40.582Z,87.72
2022-09-28T08:44:28.155Z,88.21
2022-09-28T08:47:33.347Z,87.93
2022-09-28T08:50:03.942Z,87.58
2022-09-28T08:52:38.923Z,87.76
2022-09-28T08:55:21.104Z,87.91
2022-09-28T08:58:20.512Z,87.85
2022-09-28T09:00:53.899Z,88.47
2022-09-28T09:03:30.187Z,88.14
2022-09-28T09:06:30.752Z,88.36
2022-09-28T09:09:32.355Z,87.95
2022-09-28T09:12:55.255Z,88.03
2022-09-28T09:15:39.398Z,88.28
2022-09-28T09:18:31.125Z,88.29
2022-09-28T09:21:02.229Z,88.03
2022-09-28T09:24:04.451Z,88.15
2022-09-28T09:26:42.130Z,88.49
2022-09-28T09:29:30.221Z,88.76
2022-09-28T09:32:10.111Z,88.18
2022-09-28T09:35:07.310Z,88.36
2022-09-28T09:38:11.693Z,88.00
2022-09-28T09:41:16.853Z,88.03
2022-09-28T09:44:10.995Z,87.61
2022-09-28T09:46:54.977Z,88.07
2022-09-28T09:49:31.063Z,88.04
2022-09-28T09:52:16.454Z,87.66
2022-09-28T09:54:55.215Z,87.51
2022-09-28T09:57:40.467Z,87.91
2022-09-28T10:00:15.077Z,87.87
2022-09-28T10:02:45.790Z,87.67
2022-09-28T10:05:15.535Z,87.41
2022-09-28T10:07:56.050Z,88.00
2022-09-28T10:10:51.944Z,87.23
2022-09-28T10:13:19.942Z,87.41
2022-09-28T10:15:49.622Z,87.70
2022-09-28T10:18:22.310Z,87.65
2022-09-28T10:20:50.323Z,88.10
2022-09-28T10:23:31.831Z,87.52
2022-09-28T10:26:06.439Z,87.89
2022-09-28T10:28:53.134Z,88.27
2022-09-28T10:31:37.782Z,88.38
2022-09-28T10:34:08.687Z,87.53
2022-09-28T10:36:49.189Z,88.15
2022-09-28T10:39:39.301Z,88.38
2022-09-28T10:42:12.941Z,88.41
2022-09-28T10:44:57.983Z,87.99
2022-09-28T10:47:31.183Z,87.86
2022-09-28T10:50:02.722Z,88.53
2022-09-28T10:52:55.723Z,88.40
2022-09-28T10:55:27.966Z,87.85
2022-09-28T10:57:56.081Z,87.61
2022-09-28T11:00:38.086Z,87.94
2022-09-28T11:03:07.047Z,88.04
2022-09-28T11:05:35.218Z,88.19
2022-09-28T11:08:09.728Z,88.30
2022-09-28T11:10:38.009Z,88.18
2022-09-28T11:13:10.588Z,88.00
2022-09-28T11:15:45.050Z,87.67
2022-09-28T11:18:26.405Z,87.68
2022-09-28T11:21:15.077Z,88.00
2022-09-28T11:23:58.897Z,88.15
2022-09-28T11:26:28.603Z,87.89
2022-09-28T11:28:56.387Z,88.19
2022-09-28T11:31:29.700Z,88.12
2022-09-28T11:34:47.847Z,88.09
2022-09-28T11:37:28.647Z,88.51
2022-09-28T11:40:10.445Z,88.30
2022-09-28T11:43:16.714Z,88.31
2022-09-28T11:45:56.902Z,87.86
2022-09-28T11:48:48.635Z,88.05
2022-09-28T11:51:36.391Z,88.08
2022-09-28T11:54:20.219Z,88.15
2022-09-28T11:56:52.914Z,88.03
2022-09-28T11:59:30.103Z,87.85
2022-09-28T12:02:12.821Z,87.96
2022-09-28T12:04:51.353Z,88.25
2022-09-28T12:07:26.646Z,87.80
2022-09-28T12:09:59.698Z,88.35
2022-09-28T12:12:39.937Z,88.33
2022-09-28T12:15:24.764Z,88.43
2022-09-28T12:18:05.576Z,87.93
2022-09-28T12:21:30.837Z,87.97
2022-09-28T12:24:23.992Z,88.05
2022-09-28T12:27:01.947Z,88.35
2022-09-28T12:29:56.803Z,88.55
2022-09-28T12:32:29.588Z,89.01
2022-09-28T12:34:58.242Z,88.43
2022-09-28T12:37:53.912Z,88.73
2022-09-28T12:40:34.377Z,88.31
2022-09-28T12:43:34.900Z,88.90
2022-09-28T12:46:37.708Z,88.67
2022-09-28T12:52:47.752Z,88.28
2022-09-28T12:55:19.349Z,88.04
2022-09-28T12:58:02.498Z,88.09
2022-09-28T13:01:01.396Z,88.32
2022-09-28T13:04:04.042Z,88.02
2022-09-28T13:06:51.353Z,88.94
2022-09-28T13:09:25.897Z,88.80
2022-09-28T13:12:04.580Z,89.04
2022-09-28T13:15:05.960Z,88.51
2022-09-28T13:17:48.093Z,88.50
2022-09-28T13:20:38.727Z,88.66
2022-09-28T13:25:45.689Z,88.22
2022-09-28T13:28:16.474Z,88.44
2022-09-28T13:30:46.032Z,88.47
2022-09-28T13:33:21.630Z,88.16
2022-09-28T13:35:49.956Z,88.23
2022-09-28T13:38:21.361Z,88.55
2022-09-28T13:41:10.907Z,88.90
2022-09-28T13:43:51.053Z,88.48
2022-09-28T13:46:29.546Z,89.01
2022-09-28T13:49:13.211Z,88.94
2022-09-28T13:51:54.112Z,89.47
2022-09-28T13:54:30.279Z,89.08
2022-09-28T13:57:04.566Z,88.56
2022-09-28T13:59:43.185Z,88.95
2022-09-28T14:02:28.234Z,89.19
2022-09-28T14:05:04.528Z,88.96
2022-09-28T14:07:37.483Z,88.92
2022-09-28T14:10:22.653Z,88.55
2022-09-28T14:12:52.377Z,88.38
2022-09-28T14:15:32.412Z,88.71
2022-09-28T14:18:09.150Z,88.57
2022-09-28T14:20:38.095Z,88.20
2022-09-28T14:23:32.950Z,88.14
2022-09-28T14:26:17.752Z,88.33
2022-09-28T14:29:22.161Z,88.48
2022-09-28T14:31:50.338Z,88.50
2022-09-28T14:34:34.902Z,88.62
2022-09-28T14:37:25.429Z,88.41
2022-09-28T14:40:17.189Z,88.78
2022-09-28T14:43:25.937Z,87.84
2022-09-28T14:46:13.988Z,87.90
2022-09-28T14:49:04.056Z,88.57
2022-09-28T14:51:33.704Z,88.07
2022-09-28T14:54:13.437Z,88.31
2022-09-28T14:56:55.075Z,87.98
2022-09-28T14:59:36.527Z,88.21
2022-09-28T15:02:15.469Z,88.00
2022-09-28T15:04:51.364Z,87.70
2022-09-28T15:07:34.584Z,87.88
2022-09-28T15:10:03.518Z,87.93
2022-09-28T15:12:32.495Z,88.18
2022-09-28T15:15:06.143Z,88.55
2022-09-28T15:17:40.023Z,87.85
2022-09-28T15:20:22.528Z,87.85
2022-09-28T15:22:54.500Z,88.13
2022-09-28T15:25:25.584Z,87.83
2022-09-28T15:27:57.241Z,88.45
2022-09-28T15:30:32.457Z,87.96
2022-09-28T15:33:21.267Z,87.79
2022-09-28T15:36:05.616Z,88.00
2022-09-28T15:38:38.176Z,88.33
2022-09-28T15:41:10.594Z,88.10
2022-09-28T15:43:38.729Z,88.21
2022-09-28T15:46:19.081Z,87.95
2022-09-28T15:48:56.213Z,88.29
2022-09-28T15:51:25.750Z,87.97
2022-09-28T15:53:58.794Z,87.60
2022-09-28T15:56:27.674Z,87.56
2022-09-28T15:59:19.391Z,87.76
2022-09-28T16:01:48.573Z,87.50
2022-09-28T16:04:40.225Z,87.57
2022-09-28T16:07:14.161Z,88.21
2022-09-28T16:10:15.017Z,88.17
2022-09-28T16:12:51.312Z,87.89
2022-09-28T16:15:27.184Z,87.48
2022-09-28T16:18:03.113Z,88.32
2022-09-28T16:20:37.157Z,88.11
2022-09-28T16:23:17.469Z,87.69
2022-09-28T16:26:21.184Z,88.12
2022-09-28T16:28:52.661Z,87.52
2022-09-28T16:31:21.005Z,88.00
2022-09-28T16:33:56.800Z,87.83
2022-09-28T16:36:30.605Z,87.89
2022-09-28T16:38:58.605Z,87.29
2022-09-28T16:41:29.798Z,87.31
2022-09-28T16:44:01.756Z,88.21
2022-09-28T16:46:36.986Z,87.57
2022-09-28T16:49:08.986Z,87.74
2022-09-28T16:51:40.651Z,87.96
2022-09-28T16:54:38.914Z,87.25
2022-09-28T16:57:10.290Z,87.88
2022-09-28T16:59:45.793Z,87.82
2022-09-28T17:02:42.079Z,88.12
2022-09-28T17:05:09.019Z,87.71
2022-09-28T17:07:37.112Z,87.36
2022-09-28T17:10:16.631Z,87.52
2022-09-28T17:12:44.656Z,87.62
2022-09-28T17:15:20.258Z,87.22
2022-09-28T17:17:49.621Z,87.92
2022-09-28T17:20:25.957Z,87.72
2022-09-28T17:22:54.448Z,87.46
2022-09-28T17:25:25.392Z,87.77
2022-09-28T17:27:57.286Z,87.22
2022-09-28T17:30:26.527Z,87.38
2022-09-28T17:32:54.570Z,87.46
2022-09-28T17:35:24.932Z,87.26
2022-09-28T17:37:55.064Z,87.32
2022-09-28T17:40:29.328Z,87.04
2022-09-28T17:43:00.595Z,87.60
2022-09-28T17:45:31.849Z,87.19
2022-09-28T17:48:01.425Z,87.61
2022-09-28T17:50:36.961Z,87.13
2022-09-28T17:53:07.070Z,86.96
2022-09-28T17:55:37.232Z,87.36
2022-09-28T17:58:23.604Z,87.76
2022-09-28T18:00:52.576Z,87.45
2022-09-28T18:03:23.219Z,87.81
2022-09-28T18:06:04.240Z,87.52
2022-09-28T18:08:32.145Z,87.67
2022-09-28T18:11:02.137Z,88.01
2022-09-28T18:13:31.863Z,87.81
2022-09-28T18:16:00.021Z,87.49
2022-09-28T18:18:28.085Z,87.39
2022-09-28T18:20:56.257Z,87.48
2022-09-28T18:23:24.186Z,87.71
2022-09-28T18:25:52.059Z,87.73
2022-09-28T18:28:22.257Z,87.54
2022-09-28T18:30:50.353Z,87.95
2022-09-28T18:33:18.949Z,86.81
2022-09-28T18:35:57.024Z,87.23
2022-09-28T18:38:24.922Z,87.48
2022-09-28T18:40:55.236Z,87.25
2022-09-28T18:43:25.930Z,87.40
2022-09-28T18:45:55.667Z,87.20
2022-09-28T18:48:28.302Z,86.94
2022-09-28T18:50:56.416Z,87.19
2022-09-28T18:53:24.392Z,87.21
2022-09-28T18:55:52.363Z,87.69
2022-09-28T18:58:20.440Z,87.08
2022-09-28T19:00:48.444Z,87.14
2022-09-28T19:03:16.466Z,87.04
2022-09-28T19:06:06.359Z,87.52
2022-09-28T19:08:34.408Z,87.10
2022-09-28T19:11:16.919Z,87.19
2022-09-28T19:13:45.266Z,86.74
2022-09-28T19:16:31.612Z,87.24
2022-09-28T19:19:01.433Z,87.76
2022-09-28T19:21:30.552Z,87.15
2022-09-28T19:24:07.367Z,87.42
2022-09-28T19:26:35.432Z,87.71
2022-09-28T19:29:03.616Z,87.22
2022-09-28T19:31:33.559Z,87.21
2022-09-28T19:34:01.660Z,86.69
2022-09-28T19:36:30.210Z,87.40
2022-09-28T19:39:04.937Z,87.29
2022-09-28T19:42:06.087Z,86.99
2022-09-28T19:44:38.191Z,86.79
2022-09-28T19:47:09.335Z,87.41
2022-09-28T19:49:40.780Z,87.31
2022-09-28T19:52:17.499Z,87.02
2022-09-28T19:54:48.942Z,87.11
2022-09-28T19:57:17.030Z,87.31
2022-09-28T19:59:46.650Z,87.03
2022-09-28T20:02:17.597Z,86.96
2022-09-28T20:04:45.717Z,87.22
2022-09-28T20:07:13.720Z,87.04
2022-09-28T20:09:42.705Z,86.98
2022-09-28T20:12:11.543Z,87.26
2022-09-28T20:14:40.401Z,87.35
2022-09-28T20:17:10.097Z,86.79
2022-09-28T20:19:38.177Z,87.08
2022-09-28T20:22:24.624Z,86.56
2022-09-28T20:24:54.024Z,86.96
2022-09-28T20:27:26.087Z,86.62
2022-09-28T20:29:54.553Z,87.00
2022-09-28T20:32:24.932Z,86.63
2022-09-28T20:34:52.846Z,87.01
2022-09-28T20:37:20.744Z,86.63
2022-09-28T20:39:48.929Z,86.85
2022-09-28T20:42:17.140Z,86.74
2022-09-28T20:45:01.295Z,86.23
2022-09-28T20:47:31.660Z,86.69
2022-09-28T20:49:59.621Z,86.56
2022-09-28T20:52:32.368Z,86.68
2022-09-28T20:55:00.346Z,86.98
2022-09-28T20:57:29.563Z,86.75
2022-09-28T20:59:57.687Z,86.28
2022-09-28T21:02:25.791Z,86.57
2022-09-28T21:04:54.722Z,86.51
2022-09-28T21:07:25.139Z,86.51
2022-09-28T21:09:54.209Z,86.76
2022-09-28T21:12:22.138Z,87.14
2022-09-28T21:14:50.219Z,86.93
2022-09-28T21:17:20.641Z,86.68
2022-09-28T21:19:48.589Z,87.04
2022-09-28T21:22:16.722Z,86.52
2022-09-28T21:24:44.653Z,86.60
2022-09-28T21:27:12.588Z,86.53
2022-09-28T21:29:40.899Z,87.04
2022-09-28T21:32:09.046Z,86.69
2022-09-28T21:34:36.997Z,86.95
2022-09-28T21:37:05.019Z,87.07
2022-09-28T21:39:32.951Z,86.67
2022-09-28T21:42:00.918Z,86.95
2022-09-28T21:44:30.058Z,86.99
2022-09-28T21:46:58.090Z,87.15
2022-09-28T21:49:26.033Z,86.67
2022-09-28T21:51:54.242Z,86.63
2022-09-28T21:54:22.548Z,87.00
2022-09-28T21:56:50.444Z,86.47
2022-09-28T21:59:19.456Z,86.42
2022-09-28T22:01:48.661Z,86.60
2022-09-28T22:04:16.909Z,86.51
2022-09-28T22:06:46.467Z,86.54
2022-09-28T22:09:14.410Z,86.22
2022-09-28T22:11:42.362Z,86.52
2022-09-28T22:14:11.659Z,86.72
2022-09-28T22:16:39.708Z,86.67
2022-09-28T22:19:08.602Z,86.38
2022-09-28T22:21:37.979Z,86.75
2022-09-28T22:24:07.984Z,86.17
2022-09-28T22:26:37.876Z,86.40
2022-09-28T22:29:10.731Z,86.42
2022-09-28T22:31:42.451Z,86.30
2022-09-28T22:34:10.839Z,86.20
2022-09-28T22:36:38.979Z,86.50
2022-09-28T22:39:06.948Z,86.27
2022-09-28T22:41:36.260Z,86.75
2022-09-28T22:44:05.027Z,86.41
2022-09-28T22:46:33.152Z,86.52
2022-09-28T22:49:01.745Z,86.05
2022-09-28T22:51:31.659Z,86.42
2022-09-28T22:53:59.770Z,86.55
2022-09-28T22:56:28.116Z,86.55
2022-09-28T22:58:57.845Z,86.82
2022-09-28T23:01:30.251Z,86.14
2022-09-28T23:03:59.257Z,86.73
2022-09-28T23:06:31.167Z,86.96
2022-09-28T23:08:59.358Z,86.76
2022-09-28T23:11:28.955Z,86.20
2022-09-28T23:14:01.019Z,86.33
2022-09-28T23:16:31.765Z,85.98
2022-09-28T23:18:59.808Z,86.66
2022-09-28T23:21:29.131Z,86.48
2022-09-28T23:24:00.290Z,86.34
2022-09-28T23:26:33.856Z,86.33
2022-09-28T23:29:01.971Z,86.67
2022-09-28T23:31:33.824Z,86.17
2022-09-28T23:34:07.241Z,86.50
2022-09-28T23:36:35.622Z,86.33
2022-09-28T23:39:04.737Z,86.45
2022-09-28T23:41:32.762Z,86.17
2022-09-28T23:44:00.858Z,86.31
2022-09-28T23:46:28.971Z,86.42
2022-09-28T23:48:57.216Z,86.90
2022-09-28T23:51:25.430Z,85.94
2022-09-28T23:53:53.607Z,86.39
2022-09-28T23:56:22.479Z,86.45
2022-09-28T23:58:50.383Z,86.79
